createdAt,value
2018-09-30T00:06:44.000Z,46.611
2018-09-30T00:16:44.000Z,46.693
2018-09-30T00:26:44.000Z,46.733
2018-09-30T00:36:44.000Z,46.827
2018-09-30T00:46:44.000Z,46.793
2018-09-30T00:56:44.000Z,46.876
2018-09-30T01:06:44.000Z,46.958
2018-09-30T01:16:44.000Z,47.021
2018-09-30T01:26:44.000Z,47.04
2018-09-30T01:36:44.000Z,47.091
2018-09-30T01:46:44.000Z,47.164
2018-09-30T01:56:44.000Z,47.172
2018-09-30T02:06:44.000Z,47.235
2018-09-30T02:16:44.000Z,47.253
2018-09-30T02:26:44.000Z,47.272
2018-09-30T02:36:44.000Z,47.282
2018-09-30T02:46:44.000Z,47.353
2018-09-30T02:56:44.000Z,47.372
2018-09-30T03:06:44.000Z,47.414
2018-09-30T03:16:44.000Z,47.54
2018-09-30T03:26:44.000Z,47.581
2018-09-30T03:36:44.000Z,47.652
2018-09-30T03:46:44.000Z,47.693
2018-09-30T03:56:44.000Z,47.702
2018-09-30T04:06:45.000Z,47.752
2018-09-30T04:16:44.000Z,47.803
2018-09-30T04:26:44.000Z,47.813
2018-09-30T04:36:44.000Z,47.779
2018-09-30T04:46:44.000Z,47.569
2018-09-30T04:56:44.000Z,47.653
2018-09-30T05:06:44.000Z,47.609
2018-09-30T05:16:44.000Z,47.692
2018-09-30T05:26:44.000Z,47.68
2018-09-30T05:36:44.000Z,47.743
2018-09-30T05:46:44.000Z,47.805
2018-09-30T05:56:44.000Z,47.719
2018-09-30T06:06:44.000Z,47.719
2018-09-30T06:16:44.000Z,47.75
2018-09-30T06:26:44.000Z,47.656
2018-09-30T06:36:44.000Z,47.59
2018-09-30T06:46:44.000Z,47.517
2018-09-30T06:56:44.000Z,47.206
2018-09-30T07:06:44.000Z,46.975
2018-09-30T07:16:44.000Z,46.872
2018-09-30T07:26:44.000Z,46.756
2018-09-30T07:36:44.000Z,46.715
2018-09-30T07:46:44.000Z,46.684
2018-09-30T07:56:44.000Z,46.59
2018-09-30T08:06:44.000Z,46.395
2018-09-30T08:16:44.000Z,46.322
2018-09-30T08:26:44.000Z,46.335
2018-09-30T08:36:45.000Z,46.649
2018-09-30T08:46:45.000Z,46.692
2018-09-30T08:56:45.000Z,46.571
2018-09-30T09:06:45.000Z,46.447
2018-09-30T09:16:45.000Z,46.195
2018-09-30T09:26:45.000Z,45.532
2018-09-30T09:36:45.000Z,45.32
2018-09-30T09:46:45.000Z,44.793
2018-09-30T09:56:45.000Z,44.314
2018-09-30T10:06:45.000Z,44.066
2018-09-30T10:16:45.000Z,43.895
2018-09-30T10:26:45.000Z,43.881
2018-09-30T10:36:45.000Z,43.643
2018-09-30T10:46:45.000Z,43.75
2018-09-30T10:56:45.000Z,42.736
2018-09-30T11:06:45.000Z,43.073
2018-09-30T11:16:45.000Z,42.736
2018-09-30T11:26:45.000Z,43.006
2018-09-30T11:36:45.000Z,43.086
2018-09-30T11:46:45.000Z,43.904
2018-09-30T11:56:45.000Z,45.134
2018-09-30T12:06:46.000Z,47.711
2018-09-30T12:16:45.000Z,47.734
2018-09-30T12:26:45.000Z,47.421
2018-09-30T12:36:45.000Z,46.908
2018-09-30T12:46:45.000Z,46.516
2018-09-30T12:56:45.000Z,46.254
2018-09-30T13:06:45.000Z,46.036
2018-09-30T13:16:45.000Z,45.601
2018-09-30T13:26:45.000Z,45.96
2018-09-30T13:36:45.000Z,46.805
2018-09-30T13:46:45.000Z,47.03
2018-09-30T13:56:45.000Z,47.169
2018-09-30T14:06:45.000Z,47.167
2018-09-30T14:16:52.000Z,47.184
2018-09-30T14:26:45.000Z,47.301
2018-09-30T14:36:45.000Z,47.53
2018-09-30T14:46:45.000Z,47.67
2018-09-30T14:56:48.000Z,47.822
2018-09-30T15:06:45.000Z,48.006
2018-09-30T15:16:45.000Z,48.167
2018-09-30T15:26:46.000Z,48.333
2018-09-30T15:36:46.000Z,48.143
2018-09-30T15:46:45.000Z,48.362
2018-09-30T15:56:45.000Z,49.376
2018-09-30T16:06:45.000Z,50.287
2018-09-30T16:16:45.000Z,51.28
2018-09-30T16:26:45.000Z,51.936
2018-09-30T16:36:45.000Z,52.119
2018-09-30T16:46:45.000Z,52.567
2018-09-30T16:56:46.000Z,52.978
2018-09-30T17:06:47.000Z,53.107
2018-09-30T17:16:46.000Z,53.342
2018-09-30T17:26:46.000Z,53.803
2018-09-30T17:36:46.000Z,53.648
2018-09-30T17:46:46.000Z,53.528
2018-09-30T17:56:46.000Z,53.462
2018-09-30T18:06:46.000Z,53.471
2018-09-30T18:16:46.000Z,53.394
2018-09-30T18:26:46.000Z,53.403
2018-09-30T18:36:46.000Z,53.283
2018-09-30T18:46:46.000Z,53.216
2018-09-30T18:56:46.000Z,53.403
2018-09-30T19:06:46.000Z,53.345
2018-09-30T19:16:47.000Z,53.257
2018-09-30T19:26:46.000Z,53.211
2018-09-30T19:36:46.000Z,53.1
2018-09-30T19:46:46.000Z,53.057
2018-09-30T19:56:46.000Z,53.016
2018-09-30T20:06:46.000Z,52.831
2018-09-30T20:16:46.000Z,52.9
2018-09-30T20:26:46.000Z,52.765
2018-09-30T20:36:46.000Z,52.932
2018-09-30T20:46:49.000Z,52.916
2018-09-30T20:56:47.000Z,52.899
2018-09-30T21:06:46.000Z,52.881
2018-09-30T21:16:46.000Z,52.875
2018-09-30T21:26:46.000Z,52.805
2018-09-30T21:36:46.000Z,52.766
2018-09-30T21:46:46.000Z,52.813
2018-09-30T21:56:46.000Z,52.744
2018-09-30T22:06:46.000Z,52.825
2018-09-30T22:16:46.000Z,52.875
2018-09-30T22:26:46.000Z,52.891
2018-09-30T22:36:46.000Z,52.809
2018-09-30T22:46:46.000Z,52.815
2018-09-30T22:56:46.000Z,52.81
2018-09-30T23:06:46.000Z,52.795
2018-09-30T23:16:46.000Z,52.704
2018-09-30T23:26:46.000Z,52.688
2018-09-30T23:36:46.000Z,52.662
2018-09-30T23:46:46.000Z,52.614
2018-09-30T23:56:46.000Z,52.622
